createdAt,value
2018-04-11T00:00:41.722Z,0
2018-04-11T00:01:42.361Z,0
2018-04-11T00:02:56.946Z,0
2018-04-11T00:03:42.307Z,0
2018-04-11T00:04:42.069Z,0
2018-04-11T00:05:42.352Z,0
2018-04-11T00:06:57.032Z,0
2018-04-11T00:07:57.053Z,0
2018-04-11T00:08:42.156Z,0
2018-04-11T00:09:42.444Z,0
2018-04-11T00:10:42.466Z,0
2018-04-11T00:11:42.490Z,0
2018-04-11T00:12:42.514Z,0
2018-04-11T00:13:42.531Z,0
2018-04-11T00:14:57.213Z,0
2018-04-11T00:15:42.315Z,0
2018-04-11T00:16:42.612Z,0
2018-04-11T00:17:57.021Z,0
2018-04-11T00:18:42.649Z,0
2018-04-11T00:19:57.329Z,0
2018-04-11T00:21:42.713Z,0
2018-04-11T00:22:42.738Z,0
2018-04-11T00:24:12.074Z,0
2018-04-11T00:24:42.780Z,0
2018-04-11T00:26:42.569Z,0
2018-04-11T00:27:57.515Z,0
2018-04-11T00:28:42.867Z,0
2018-04-11T00:29:42.625Z,0
2018-04-11T00:30:42.910Z,0
2018-04-11T00:31:57.592Z,0
2018-04-11T00:32:42.949Z,0
2018-04-11T00:33:42.979Z,0
2018-04-11T00:34:42.738Z,0
2018-04-11T00:35:57.677Z,0
2018-04-11T00:36:43.040Z,0
2018-04-11T00:37:57.719Z,0
2018-04-11T00:38:57.484Z,0
2018-04-11T00:39:42.845Z,0
2018-04-11T00:40:43.127Z,0
2018-04-11T00:41:43.152Z,0
2018-04-11T00:42:43.169Z,0
2018-04-11T00:43:42.935Z,0
2018-04-11T00:44:43.217Z,0
2018-04-11T00:45:43.238Z,0
2018-04-11T00:46:43.008Z,0
2018-04-11T00:47:43.391Z,0
2018-04-11T00:48:43.310Z,0
2018-04-11T00:49:43.338Z,0
2018-04-11T00:50:43.346Z,0
2018-04-11T00:51:43.128Z,0
2018-04-11T00:52:43.393Z,0
2018-04-11T00:53:43.423Z,0
2018-04-11T00:54:43.493Z,0
2018-04-11T00:55:43.464Z,0
2018-04-11T00:56:43.483Z,0
2018-04-11T00:57:43.508Z,0
2018-04-11T00:58:43.264Z,0
2018-04-11T00:59:43.542Z,0
2018-04-11T01:00:43.568Z,0
2018-04-11T01:01:43.327Z,0
2018-04-11T01:02:43.354Z,0
2018-04-11T01:03:43.379Z,0
2018-04-11T01:04:58.363Z,0
2018-04-11T01:05:43.416Z,0
2018-04-11T01:06:43.696Z,0
2018-04-11T01:07:43.456Z,0
2018-04-11T01:08:43.482Z,0
2018-04-11T01:09:58.421Z,0
2018-04-11T01:10:58.189Z,0
2018-04-11T01:11:43.555Z,0
2018-04-11T01:12:58.530Z,0
2018-04-11T01:13:43.854Z,0
2018-04-11T01:16:58.578Z,0
2018-04-11T01:17:58.336Z,0
2018-04-11T01:18:43.966Z,0
2018-04-11T01:19:43.983Z,0
2018-04-11T01:20:44.000Z,0
2018-04-11T01:21:43.767Z,0
2018-04-11T01:22:44.051Z,0
2018-04-11T01:23:43.553Z,0
2018-04-11T01:24:58.754Z,0
2018-04-11T01:25:44.119Z,0
2018-04-11T01:26:58.802Z,0
2018-04-11T01:27:43.640Z,0
2018-04-11T01:28:44.278Z,0
2018-04-11T01:29:44.201Z,0
2018-04-11T01:30:44.068Z,0
2018-04-11T01:31:43.987Z,0
2018-04-11T01:33:43.778Z,0
2018-04-11T01:34:44.316Z,0
2018-04-11T01:35:44.331Z,0
2018-04-11T01:36:44.352Z,0
2018-04-11T01:37:44.375Z,0
2018-04-11T01:38:44.394Z,0
2018-04-11T01:39:43.907Z,0
2018-04-11T01:40:44.444Z,0
2018-04-11T01:41:44.461Z,0
2018-04-11T01:42:59.141Z,0
2018-04-11T01:43:44.506Z,0
2018-04-11T01:44:44.271Z,0
2018-04-11T01:45:44.293Z,0
2018-04-11T01:46:44.570Z,0
2018-04-11T01:47:44.082Z,0
2018-04-11T01:48:59.276Z,0
2018-04-11T01:49:59.296Z,0
2018-04-11T01:50:44.668Z,0
2018-04-11T01:51:44.422Z,0
2018-04-11T01:52:44.449Z,0
2018-04-11T01:53:44.724Z,0
2018-04-11T01:54:44.757Z,0
2018-04-11T01:55:44.508Z,0
2018-04-11T01:56:44.534Z,0
2018-04-11T01:58:59.492Z,0
2018-04-11T01:59:44.858Z,0
2018-04-11T02:00:44.884Z,0
2018-04-11T02:01:44.901Z,0
2018-04-11T02:02:59.585Z,0
2018-04-11T02:03:44.949Z,0
2018-04-11T02:04:44.707Z,0
2018-04-11T02:05:44.989Z,0
2018-04-11T02:06:44.756Z,0
2018-04-11T02:07:44.822Z,0
2018-04-11T02:08:45.059Z,0
2018-04-11T02:09:44.858Z,0
2018-04-11T02:10:45.098Z,0
2018-04-11T02:11:45.116Z,0
2018-04-11T02:12:44.886Z,0
2018-04-11T02:14:14.480Z,0
2018-04-11T02:14:45.185Z,0
2018-04-11T02:15:44.997Z,0
2018-04-11T02:16:45.226Z,0
2018-04-11T02:17:59.910Z,0
2018-04-11T02:18:59.931Z,0
2018-04-11T02:19:45.033Z,0
2018-04-11T02:20:45.053Z,0
2018-04-11T02:21:59.996Z,0
2018-04-11T02:22:45.099Z,0
2018-04-11T02:23:44.910Z,0
2018-04-11T02:24:45.141Z,0
2018-04-11T02:25:45.422Z,0
2018-04-11T02:26:45.191Z,0
2018-04-11T02:27:45.468Z,0
2018-04-11T02:28:45.490Z,0
2018-04-11T02:29:45.509Z,0
2018-04-11T02:30:45.274Z,0
2018-04-11T02:31:45.572Z,0
2018-04-11T02:32:45.582Z,0
2018-04-11T02:33:45.076Z,0
2018-04-11T02:34:45.627Z,0
2018-04-11T02:36:00.306Z,0
2018-04-11T02:37:00.320Z,0
2018-04-11T02:37:45.687Z,0
2018-04-11T02:38:45.703Z,0
2018-04-11T02:40:00.132Z,0
2018-04-11T02:40:45.492Z,0
2018-04-11T02:41:45.518Z,0
2018-04-11T02:42:45.295Z,0
2018-04-11T02:43:45.823Z,0
2018-04-11T02:44:45.658Z,0
2018-04-11T02:46:15.173Z,0
2018-04-11T02:46:45.880Z,0
2018-04-11T02:47:45.645Z,0
2018-04-11T02:48:45.929Z,0
2018-04-11T02:50:00.082Z,0
2018-04-11T02:50:45.962Z,0
2018-04-11T02:51:45.740Z,0
2018-04-11T02:53:00.663Z,0
2018-04-11T02:53:45.783Z,0
2018-04-11T02:54:46.063Z,0
2018-04-11T02:55:46.074Z,0
2018-04-11T02:56:46.091Z,0
2018-04-11T02:57:46.113Z,0
2018-04-11T02:59:00.809Z,0
2018-04-11T02:59:46.160Z,0
2018-04-11T03:00:45.927Z,0
2018-04-11T03:02:00.857Z,0
2018-04-11T03:03:00.885Z,0
2018-04-11T03:03:46.248Z,0
2018-04-11T03:04:46.265Z,0
2018-04-11T03:05:46.031Z,0
2018-04-11T03:06:46.308Z,0
2018-04-11T03:07:46.327Z,0
2018-04-11T03:08:46.363Z,0
2018-04-11T03:10:46.395Z,0
2018-04-11T03:11:46.154Z,0
2018-04-11T03:12:46.443Z,0
2018-04-11T03:13:46.454Z,0
2018-04-11T03:14:45.705Z,0
2018-04-11T03:16:01.156Z,0
2018-04-11T03:16:45.741Z,0
2018-04-11T03:18:01.198Z,0
2018-04-11T03:18:46.562Z,0
2018-04-11T03:20:00.987Z,0
2018-04-11T03:20:46.610Z,0
2018-04-11T03:21:46.625Z,0
2018-04-11T03:22:46.645Z,0
2018-04-11T03:23:46.412Z,0
2018-04-11T03:24:46.696Z,0
2018-04-11T03:25:46.449Z,0
2018-04-11T03:26:46.727Z,0
2018-04-11T03:27:46.749Z,0
2018-04-11T03:28:46.771Z,0
2018-04-11T03:29:46.285Z,0
2018-04-11T03:30:46.932Z,0
2018-04-11T03:31:46.610Z,0
2018-04-11T03:34:01.537Z,0
2018-04-11T03:34:46.897Z,0
2018-04-11T03:35:46.922Z,0
2018-04-11T03:36:46.421Z,0
2018-04-11T03:37:46.959Z,0
2018-04-11T03:38:46.992Z,0
2018-04-11T03:39:46.745Z,0
2018-04-11T03:40:47.032Z,0
2018-04-11T03:41:46.896Z,0
2018-04-11T03:42:46.832Z,0
2018-04-11T03:43:47.089Z,0
2018-04-11T03:44:47.137Z,0
2018-04-11T03:45:46.872Z,0
2018-04-11T03:47:01.813Z,0
2018-04-11T03:47:47.177Z,0
2018-04-11T03:49:46.700Z,0
2018-04-11T03:50:47.241Z,0
2018-04-11T03:51:47.004Z,0
2018-04-11T03:52:47.278Z,0
2018-04-11T03:54:01.969Z,0
2018-04-11T03:54:46.815Z,0
2018-04-11T03:55:47.084Z,0
2018-04-11T03:56:47.109Z,0
2018-04-11T03:57:47.391Z,4
2018-04-11T03:58:47.146Z,4
2018-04-11T03:59:46.914Z,4
2018-04-11T04:00:47.206Z,0
2018-04-11T04:01:47.686Z,0
2018-04-11T04:02:47.232Z,4
2018-04-11T04:03:47.262Z,4
2018-04-11T04:05:47.553Z,4
2018-04-11T04:06:47.577Z,4
2018-04-11T04:07:47.781Z,4
2018-04-11T04:08:47.619Z,8
2018-04-11T04:10:47.659Z,12
2018-04-11T04:12:02.340Z,12
2018-04-11T04:12:47.705Z,16
2018-04-11T04:14:02.396Z,16
2018-04-11T04:15:02.145Z,12
2018-04-11T04:15:47.772Z,16
2018-04-11T04:16:47.530Z,20
2018-04-11T04:17:47.914Z,20
2018-04-11T04:18:47.568Z,20
2018-04-11T04:19:47.690Z,28
2018-04-11T04:21:02.530Z,32
2018-04-11T04:21:47.899Z,36
2018-04-11T04:22:47.918Z,36
2018-04-11T04:23:47.933Z,36
2018-04-11T04:24:47.694Z,40
2018-04-11T04:25:47.986Z,40
2018-04-11T04:27:02.657Z,44
2018-04-11T04:27:48.019Z,48
2018-04-11T04:28:47.787Z,52
2018-04-11T04:29:47.809Z,56
2018-04-11T04:30:47.308Z,64
2018-04-11T04:31:47.849Z,68
2018-04-11T04:32:48.125Z,76
2018-04-11T04:33:48.144Z,80
2018-04-11T04:35:02.824Z,84
2018-04-11T04:35:48.200Z,88
2018-04-11T04:37:02.870Z,96
2018-04-11T04:37:47.971Z,104
2018-04-11T04:38:48.250Z,112
2018-04-11T04:39:48.371Z,128
2018-04-11T04:41:48.320Z,152
2018-04-11T04:42:48.337Z,172
2018-04-11T04:44:03.012Z,200
2018-04-11T04:44:48.380Z,224
2018-04-11T04:45:48.398Z,256
2018-04-11T04:47:02.559Z,296
2018-04-11T04:47:48.283Z,316
2018-04-11T04:48:48.204Z,348
2018-04-11T04:49:48.488Z,392
2018-04-11T04:51:03.161Z,440
2018-04-11T04:51:48.529Z,468
2018-04-11T04:53:17.862Z,528
2018-04-11T04:53:48.053Z,552
2018-04-11T04:54:48.590Z,588
2018-04-11T04:55:48.353Z,632
2018-04-11T04:56:48.635Z,696
2018-04-11T04:57:48.655Z,776
2018-04-11T04:58:48.460Z,840
2018-04-11T05:00:03.351Z,832
2018-04-11T05:00:48.716Z,796
2018-04-11T05:01:48.737Z,736
2018-04-11T05:02:48.497Z,688
2018-04-11T05:04:48.543Z,644
2018-04-11T05:05:48.824Z,668
2018-04-11T05:06:48.838Z,696
2018-04-11T05:07:48.961Z,708
2018-04-11T05:09:18.199Z,732
2018-04-11T05:10:48.922Z,804
2018-04-11T05:11:48.728Z,892
2018-04-11T05:12:48.709Z,992
2018-04-11T05:13:48.727Z,1024
2018-04-11T05:14:49.014Z,952
2018-04-11T05:15:48.774Z,852
2018-04-11T05:16:49.050Z,748
2018-04-11T05:17:49.068Z,664
2018-04-11T05:18:49.091Z,608
2018-04-11T05:19:49.116Z,596
2018-04-11T05:20:48.882Z,624
2018-04-11T05:22:03.614Z,684
2018-04-11T05:23:03.835Z,724
2018-04-11T05:24:18.516Z,776
2018-04-11T05:24:48.974Z,784
2018-04-11T05:25:49.239Z,808
2018-04-11T05:26:49.004Z,840
2018-04-11T05:27:49.285Z,848
2018-04-11T05:28:49.306Z,860
2018-04-11T05:29:49.065Z,840
2018-04-11T05:30:49.349Z,840
2018-04-11T05:31:49.368Z,876
2018-04-11T05:32:49.534Z,940
2018-04-11T05:34:49.430Z,1112
2018-04-11T05:35:49.457Z,1184
2018-04-11T05:36:49.484Z,1216
2018-04-11T05:37:49.514Z,1700
2018-04-11T05:38:49.260Z,1616
2018-04-11T05:40:49.562Z,2272
2018-04-11T05:41:49.590Z,2696
2018-04-11T05:42:49.352Z,3276
2018-04-11T05:43:49.623Z,4148
2018-04-11T05:44:49.385Z,5276
2018-04-11T05:45:49.663Z,6356
2018-04-11T05:46:49.717Z,6972
2018-04-11T05:48:04.422Z,7488
2018-04-11T05:48:49.732Z,7628
2018-04-11T05:49:49.750Z,7600
2018-04-11T05:50:49.520Z,7376
2018-04-11T05:51:49.534Z,7080
2018-04-11T05:52:49.815Z,6700
2018-04-11T05:53:49.834Z,6276
2018-04-11T05:54:49.863Z,5800
2018-04-11T05:56:19.196Z,5544
2018-04-11T05:57:04.301Z,5728
2018-04-11T05:57:49.933Z,6152
2018-04-11T05:58:50.036Z,7484
2018-04-11T05:59:49.452Z,8700
2018-04-11T06:00:49.735Z,7356
2018-04-11T06:01:49.754Z,7504
2018-04-11T06:02:50.040Z,7828
2018-04-11T06:03:50.063Z,8144
2018-04-11T06:05:04.474Z,8436
2018-04-11T06:05:49.858Z,8624
2018-04-11T06:06:50.119Z,8900
2018-04-11T06:07:50.152Z,9564
2018-04-11T06:08:49.903Z,10528
2018-04-11T06:09:50.187Z,11248
2018-04-11T06:10:50.210Z,11556
2018-04-11T06:12:19.547Z,11568
2018-04-11T06:12:50.260Z,12048
2018-04-11T06:13:50.272Z,12456
2018-04-11T06:15:04.958Z,13064
2018-04-11T06:15:50.104Z,18240
2018-04-11T06:18:04.765Z,11024
2018-04-11T06:18:49.869Z,10796
2018-04-11T06:19:50.411Z,10520
2018-04-11T06:20:50.430Z,10204
2018-04-11T06:21:50.460Z,10396
2018-04-11T06:22:50.629Z,15488
2018-04-11T06:23:50.496Z,21952
2018-04-11T06:24:50.525Z,22624
2018-04-11T06:25:50.538Z,22400
2018-04-11T06:26:50.309Z,18880
2018-04-11T06:28:05.081Z,43680
2018-04-11T06:28:50.613Z,36992
2018-04-11T06:29:50.375Z,44640
2018-04-11T06:30:50.656Z,46048
2018-04-11T06:31:50.689Z,32800
2018-04-11T06:32:50.703Z,43936
2018-04-11T06:33:50.888Z,49344
2018-04-11T06:35:05.446Z,51968
2018-04-11T06:35:50.516Z,52736
2018-04-11T06:36:50.799Z,47328
2018-04-11T06:37:50.830Z,48224
2018-04-11T06:39:05.251Z,52832
2018-04-11T06:39:50.876Z,53600
2018-04-11T06:40:50.909Z,55360
2018-04-11T06:41:50.932Z,54112
2018-04-11T06:42:50.959Z,53088
2018-04-11T06:44:05.379Z,53792
2018-04-11T06:44:50.755Z,53184
2018-04-11T06:45:51.032Z,56352
2018-04-11T06:46:50.809Z,56608
2018-04-11T06:47:51.088Z,52896
2018-04-11T06:49:51.148Z,49632
2018-04-11T06:50:51.166Z,50336
2018-04-11T06:51:51.200Z,51008
2018-04-11T06:52:50.709Z,54912
2018-04-11T06:53:51.251Z,57152
2018-04-11T06:54:51.294Z,55520
2018-04-11T06:55:51.320Z,55584
2018-04-11T06:56:51.337Z,56928
2018-04-11T06:57:51.372Z,58368
2018-04-11T06:59:06.058Z,58176
2018-04-11T07:00:51.458Z,58336
2018-04-11T07:01:50.961Z,61536
2018-04-11T07:02:51.524Z,59232
2018-04-11T07:03:51.543Z,61792
2018-04-11T07:04:51.314Z,57952
2018-04-11T07:05:51.597Z,61600
2018-04-11T07:06:51.639Z,59584
2018-04-11T07:07:51.136Z,61216
2018-04-11T07:08:51.685Z,62816
2018-04-11T07:09:51.725Z,59104
2018-04-11T07:10:51.753Z,62784
2018-04-11T07:11:51.776Z,64384
2018-04-11T07:13:06.465Z,64128
2018-04-11T07:13:51.574Z,64224
2018-04-11T07:14:51.865Z,64448
2018-04-11T07:15:51.635Z,64448
2018-04-11T07:16:51.928Z,64384
2018-04-11T07:17:51.954Z,64256
2018-04-11T07:19:06.647Z,63136
2018-04-11T07:20:06.676Z,64736
2018-04-11T07:21:06.708Z,66304
2018-04-11T07:22:06.734Z,67104
2018-04-11T07:22:51.844Z,65600
2018-04-11T07:23:51.875Z,62816
2018-04-11T07:24:51.907Z,64512
2018-04-11T07:26:06.933Z,61152
2018-04-11T07:27:06.890Z,63040
2018-04-11T07:27:52.255Z,66016
2018-04-11T07:28:52.332Z,66656
2018-04-11T07:29:52.067Z,64928
2018-04-11T07:31:06.748Z,65664
2018-04-11T07:31:52.130Z,63680
2018-04-11T07:32:52.154Z,64768
2018-04-11T07:33:52.514Z,66688
2018-04-11T07:34:52.211Z,66080
2018-04-11T07:35:52.502Z,61792
2018-04-11T07:37:07.195Z,62112
2018-04-11T07:38:06.966Z,65216
2018-04-11T07:38:52.334Z,64704
2018-04-11T07:40:07.449Z,62432
2018-04-11T07:40:52.659Z,62592
2018-04-11T07:41:52.687Z,63200
2018-04-11T07:42:52.718Z,60512
2018-04-11T07:43:52.490Z,60928
2018-04-11T07:46:07.312Z,62880
2018-04-11T07:47:07.509Z,61632
2018-04-11T07:47:52.619Z,60896
2018-04-11T07:48:52.647Z,62176
2018-04-11T07:49:52.695Z,62560
2018-04-11T07:50:52.721Z,59136
2018-04-11T07:51:52.751Z,59168
2018-04-11T07:52:52.523Z,61504
2018-04-11T07:54:53.115Z,60064
2018-04-11T07:55:53.132Z,56800
2018-04-11T07:57:07.558Z,60000
2018-04-11T07:57:53.200Z,59328
2018-04-11T07:59:52.750Z,60544
2018-04-11T08:00:53.024Z,60160
2018-04-11T08:02:07.973Z,59200
2018-04-11T08:03:22.722Z,57152
2018-04-11T08:03:53.374Z,56992
2018-04-11T08:04:53.427Z,57184
2018-04-11T08:05:53.447Z,60160
2018-04-11T08:06:53.477Z,58720
2018-04-11T08:07:53.504Z,55328
2018-04-11T08:08:53.289Z,51200
2018-04-11T08:10:08.271Z,48128
2018-04-11T08:10:53.080Z,54208
2018-04-11T08:11:53.372Z,51232
2018-04-11T08:12:53.411Z,56000
2018-04-11T08:13:53.691Z,55968
2018-04-11T08:14:53.742Z,55776
2018-04-11T08:16:53.781Z,51520
2018-04-11T08:18:08.474Z,54528
2018-04-11T08:19:08.248Z,52832
2018-04-11T08:19:53.884Z,51968
2018-04-11T08:20:53.907Z,53536
2018-04-11T08:21:53.949Z,52288
2018-04-11T08:23:54.011Z,50848
2018-04-11T08:24:53.515Z,48768
2018-04-11T08:25:54.062Z,49024
2018-04-11T08:26:53.837Z,49152
2018-04-11T08:27:54.124Z,49600
2018-04-11T08:28:53.897Z,48992
2018-04-11T08:29:54.286Z,48128
2018-04-11T08:30:54.220Z,46976
2018-04-11T08:31:54.248Z,46656
2018-04-11T08:32:54.284Z,47488
2018-04-11T08:34:23.634Z,45856
2018-04-11T08:34:54.091Z,44192
2018-04-11T08:35:54.118Z,44448
2018-04-11T08:36:54.151Z,47488
2018-04-11T08:37:54.179Z,45184
2018-04-11T08:38:54.482Z,46208
2018-04-11T08:39:53.978Z,44672
2018-04-11T08:40:54.008Z,43072
2018-04-11T08:41:54.562Z,46592
2018-04-11T08:42:54.588Z,44448
2018-04-11T08:43:54.728Z,44320
2018-04-11T08:44:54.655Z,42240
2018-04-11T08:45:54.162Z,41536
2018-04-11T08:46:54.709Z,41152
2018-04-11T08:47:54.487Z,40320
2018-04-11T08:48:54.826Z,41568
2018-04-11T08:49:54.288Z,39744
2018-04-11T08:50:54.834Z,37856
2018-04-11T08:51:54.396Z,36928
2018-04-11T08:52:54.895Z,34528
2018-04-11T08:54:09.787Z,33952
2018-04-11T08:54:54.694Z,34784
2018-04-11T08:55:55.002Z,31360
2018-04-11T08:56:55.019Z,24960
2018-04-11T08:58:09.704Z,23872
2018-04-11T08:58:54.835Z,23808
2018-04-11T08:59:55.103Z,23104
2018-04-11T09:00:55.141Z,23296
2018-04-11T09:01:55.173Z,22976
2018-04-11T09:02:54.676Z,23232
2018-04-11T09:04:55.254Z,22816
2018-04-11T09:06:09.694Z,22624
2018-04-11T09:06:55.421Z,22592
2018-04-11T09:07:55.348Z,22528
2018-04-11T09:08:55.116Z,22432
2018-04-11T09:09:55.401Z,22144
2018-04-11T09:10:55.437Z,21888
2018-04-11T09:11:55.482Z,21952
2018-04-11T09:12:55.242Z,21792
2018-04-11T09:13:55.537Z,21664
2018-04-11T09:14:55.553Z,21632
2018-04-11T09:15:55.599Z,21696
2018-04-11T09:17:55.646Z,21056
2018-04-11T09:18:55.415Z,21088
2018-04-11T09:20:10.366Z,21184
2018-04-11T09:20:55.859Z,20576
2018-04-11T09:22:10.168Z,21344
2018-04-11T09:22:55.804Z,20416
2018-04-11T09:23:55.869Z,20608
2018-04-11T09:25:10.521Z,21184
2018-04-11T09:26:10.290Z,20896
2018-04-11T09:26:55.913Z,20544
2018-04-11T09:27:55.943Z,20832
2018-04-11T09:28:55.989Z,20352
2018-04-11T09:29:55.747Z,19904
2018-04-11T09:30:55.774Z,19936
2018-04-11T09:31:56.513Z,19392
2018-04-11T09:33:55.861Z,19936
2018-04-11T09:34:55.890Z,19456
2018-04-11T09:35:55.663Z,19456
2018-04-11T09:36:55.691Z,18784
2018-04-11T09:38:10.912Z,19296
2018-04-11T09:38:56.347Z,19232
2018-04-11T09:39:56.306Z,19200
2018-04-11T09:40:56.327Z,20256
2018-04-11T09:41:56.402Z,19040
2018-04-11T09:44:10.824Z,18848
2018-04-11T09:45:11.108Z,18720
2018-04-11T09:45:56.475Z,18784
2018-04-11T09:46:56.516Z,18688
2018-04-11T09:47:56.546Z,18144
2018-04-11T09:49:10.704Z,17748
2018-04-11T09:49:56.593Z,18336
2018-04-11T09:50:56.621Z,17664
2018-04-11T09:52:11.342Z,18080
2018-04-11T09:53:11.082Z,17952
2018-04-11T09:55:11.138Z,18528
2018-04-11T09:55:56.776Z,18272
2018-04-11T09:56:56.798Z,17608
2018-04-11T09:58:11.487Z,18080
2018-04-11T09:58:56.852Z,17076
2018-04-11T09:59:56.633Z,17392
2018-04-11T10:00:56.652Z,17016
2018-04-11T10:01:56.681Z,16900
2018-04-11T10:03:11.632Z,17340
2018-04-11T10:03:56.734Z,17180
2018-04-11T10:05:56.798Z,17284
2018-04-11T10:06:56.626Z,17140
2018-04-11T10:07:57.121Z,17200
2018-04-11T10:09:26.461Z,16892
2018-04-11T10:09:57.172Z,17036
2018-04-11T10:10:57.205Z,17296
2018-04-11T10:11:57.229Z,17416
2018-04-11T10:12:57.259Z,17204
2018-04-11T10:13:57.285Z,16932
2018-04-11T10:14:57.315Z,16544
2018-04-11T10:15:57.346Z,16012
2018-04-11T10:16:56.848Z,15924
2018-04-11T10:18:12.053Z,15564
2018-04-11T10:18:57.168Z,15500
2018-04-11T10:19:56.934Z,15976
2018-04-11T10:20:57.221Z,15712
2018-04-11T10:21:57.248Z,15056
2018-04-11T10:23:12.199Z,15792
2018-04-11T10:24:57.395Z,14952
2018-04-11T10:25:57.362Z,14764
2018-04-11T10:27:12.051Z,15280
2018-04-11T10:27:57.679Z,15136
2018-04-11T10:28:57.722Z,13880
2018-04-11T10:29:57.733Z,15316
2018-04-11T10:30:57.507Z,15228
2018-04-11T10:31:57.806Z,14828
2018-04-11T10:33:12.478Z,14836
2018-04-11T10:33:57.849Z,15144
2018-04-11T10:34:57.881Z,14680
2018-04-11T10:35:57.900Z,14776
2018-04-11T10:36:57.672Z,14460
2018-04-11T10:37:57.698Z,13820
2018-04-11T10:38:57.982Z,13964
2018-04-11T10:39:57.760Z,8916
2018-04-11T10:41:27.359Z,14932
2018-04-11T10:42:12.467Z,14644
2018-04-11T10:42:57.847Z,14628
2018-04-11T10:44:58.148Z,14616
2018-04-11T10:45:58.177Z,9296
2018-04-11T10:46:57.684Z,14112
2018-04-11T10:47:58.227Z,14244
2018-04-11T10:49:12.927Z,13964
2018-04-11T10:50:58.049Z,14220
2018-04-11T10:51:58.338Z,14364
2018-04-11T10:52:58.104Z,13900
2018-04-11T10:53:58.391Z,13184
2018-04-11T10:54:58.418Z,12900
2018-04-11T10:57:13.132Z,13512
2018-04-11T10:58:12.898Z,13244
2018-04-11T10:58:58.523Z,13400
2018-04-11T10:59:58.030Z,13196
2018-04-11T11:00:58.745Z,12096
2018-04-11T11:01:58.088Z,11672
2018-04-11T11:02:58.641Z,11444
2018-04-11T11:03:58.396Z,11664
2018-04-11T11:04:58.683Z,10652
2018-04-11T11:06:13.430Z,10772
2018-04-11T11:07:58.764Z,9964
2018-04-11T11:09:13.449Z,9424
2018-04-11T11:09:58.814Z,9976
2018-04-11T11:10:58.840Z,10096
2018-04-11T11:12:13.528Z,9804
2018-04-11T11:13:28.210Z,9712
2018-04-11T11:13:58.919Z,9608
2018-04-11T11:14:58.950Z,9436
2018-04-11T11:15:58.709Z,9540
2018-04-11T11:16:58.995Z,9564
2018-04-11T11:17:59.029Z,9712
2018-04-11T11:18:58.804Z,9668
2018-04-11T11:20:13.473Z,9708
2018-04-11T11:20:59.107Z,9824
2018-04-11T11:21:59.132Z,10064
2018-04-11T11:22:58.969Z,10200
2018-04-11T11:24:13.574Z,9008
2018-04-11T11:24:58.942Z,7084
2018-04-11T11:26:59.006Z,6740
2018-04-11T11:27:59.025Z,7064
2018-04-11T11:29:28.624Z,7248
2018-04-11T11:29:59.332Z,7668
2018-04-11T11:30:59.357Z,9004
2018-04-11T11:31:59.386Z,9148
2018-04-11T11:32:59.408Z,9144
2018-04-11T11:33:59.449Z,8448
2018-04-11T11:34:59.204Z,9428
2018-04-11T11:36:14.142Z,8296
2018-04-11T11:37:14.170Z,7336
2018-04-11T11:37:59.296Z,7448
2018-04-11T11:39:13.970Z,7440
2018-04-11T11:39:59.326Z,7244
2018-04-11T11:40:59.610Z,7152
2018-04-11T11:42:59.143Z,7288
2018-04-11T11:44:29.009Z,8240
2018-04-11T11:44:59.713Z,7892
2018-04-11T11:45:59.582Z,8308
2018-04-11T11:46:59.773Z,8584
2018-04-11T11:47:59.792Z,8780
2018-04-11T11:48:59.820Z,9236
2018-04-11T11:49:59.578Z,9580
2018-04-11T11:51:14.534Z,8612
2018-04-11T11:51:59.935Z,7160
2018-04-11T11:52:59.917Z,7732
2018-04-11T11:53:59.939Z,8116
2018-04-11T11:54:59.736Z,7984
2018-04-11T11:55:59.744Z,8092
2018-04-11T11:57:14.678Z,8264
2018-04-11T11:58:00.056Z,7916
2018-04-11T11:58:59.815Z,8604
2018-04-11T11:59:59.577Z,8220
2018-04-11T12:01:00.118Z,8092
2018-04-11T12:02:14.818Z,7580
2018-04-11T12:02:59.924Z,7812
2018-04-11T12:04:00.191Z,7812
2018-04-11T12:05:00.087Z,7880
2018-04-11T12:06:00.249Z,7948
2018-04-11T12:07:00.269Z,7856
2018-04-11T12:08:00.306Z,7772
2018-04-11T12:09:00.320Z,7756
2018-04-11T12:10:00.367Z,7864
2018-04-11T12:10:59.854Z,7940
2018-04-11T12:12:15.217Z,7840
2018-04-11T12:13:00.420Z,7868
2018-04-11T12:16:15.160Z,7848
2018-04-11T12:17:15.189Z,7792
2018-04-11T12:18:00.551Z,7740
2018-04-11T12:19:00.619Z,7676
2018-04-11T12:21:00.368Z,7600
2018-04-11T12:22:00.387Z,7616
2018-04-11T12:23:15.073Z,7744
2018-04-11T12:24:00.180Z,6716
2018-04-11T12:25:00.727Z,7724
2018-04-11T12:26:00.754Z,7920
2018-04-11T12:27:00.778Z,8004
2018-04-11T12:28:15.459Z,7768
2018-04-11T12:29:00.831Z,7764
2018-04-11T12:30:15.511Z,7644
2018-04-11T12:31:15.533Z,7648
2018-04-11T12:32:30.219Z,7572
2018-04-11T12:33:00.933Z,7512
2018-04-11T12:34:00.688Z,7492
2018-04-11T12:35:00.728Z,7604
2018-04-11T12:36:01.008Z,7512
2018-04-11T12:37:01.029Z,7408
2018-04-11T12:38:01.055Z,7528
2018-04-11T12:39:15.734Z,7428
2018-04-11T12:40:00.845Z,7440
2018-04-11T12:41:15.784Z,7336
2018-04-11T12:42:01.149Z,7388
2018-04-11T12:43:01.175Z,7436
2018-04-11T12:44:01.200Z,7304
2018-04-11T12:45:01.228Z,7420
2018-04-11T12:46:15.910Z,7416
2018-04-11T12:48:30.619Z,7456
2018-04-11T12:49:01.332Z,7468
2018-04-11T12:50:00.834Z,7464
2018-04-11T12:51:16.041Z,7360
2018-04-11T12:52:01.404Z,7360
2018-04-11T12:53:01.168Z,7372
2018-04-11T12:54:01.455Z,7352
2018-04-11T12:55:01.473Z,7240
2018-04-11T12:56:01.574Z,7248
2018-04-11T12:57:01.533Z,7300
2018-04-11T12:58:16.216Z,7240
2018-04-11T12:59:01.575Z,7360
2018-04-11T13:00:01.613Z,7140
2018-04-11T13:01:01.367Z,6256
2018-04-11T13:02:01.656Z,7192
2018-04-11T13:03:16.078Z,7388
2018-04-11T13:04:16.414Z,7496
2018-04-11T13:05:01.520Z,7476
2018-04-11T13:06:01.755Z,7480
2018-04-11T13:07:01.772Z,7480
2018-04-11T13:08:01.801Z,7504
2018-04-11T13:09:01.569Z,7508
2018-04-11T13:10:01.850Z,7488
2018-04-11T13:11:16.541Z,7140
2018-04-11T13:12:01.641Z,7012
2018-04-11T13:13:01.925Z,7068
2018-04-11T13:14:01.954Z,7048
2018-04-11T13:15:02.038Z,7124
2018-04-11T13:16:02.006Z,7192
2018-04-11T13:17:02.129Z,7276
2018-04-11T13:18:01.588Z,7100
2018-04-11T13:19:16.736Z,6824
2018-04-11T13:20:16.503Z,6736
2018-04-11T13:21:02.138Z,6776
2018-04-11T13:22:02.147Z,7032
2018-04-11T13:23:02.183Z,7016
2018-04-11T13:24:02.206Z,6928
2018-04-11T13:25:02.225Z,7116
2018-04-11T13:26:02.248Z,7124
2018-04-11T13:27:16.943Z,7140
2018-04-11T13:28:16.697Z,7076
2018-04-11T13:29:02.328Z,7192
2018-04-11T13:30:02.349Z,7144
2018-04-11T13:31:02.160Z,6976
2018-04-11T13:32:02.401Z,6908
2018-04-11T13:33:02.431Z,6916
2018-04-11T13:34:02.448Z,6864
2018-04-11T13:35:02.212Z,7024
2018-04-11T13:36:02.242Z,7008
2018-04-11T13:38:02.300Z,7140
2018-04-11T13:39:02.585Z,7100
2018-04-11T13:40:02.393Z,7128
2018-04-11T13:41:02.806Z,7152
2018-04-11T13:42:17.304Z,7084
2018-04-11T13:43:02.671Z,7100
2018-04-11T13:44:02.692Z,7220
2018-04-11T13:45:02.732Z,6908
2018-04-11T13:46:02.756Z,6372
2018-04-11T13:47:02.787Z,6384
2018-04-11T13:48:17.456Z,6724
2018-04-11T13:50:02.587Z,6864
2018-04-11T13:51:32.188Z,7064
2018-04-11T13:53:02.915Z,7064
2018-04-11T13:54:02.687Z,7040
2018-04-11T13:55:02.728Z,6976
2018-04-11T13:56:02.741Z,7016
2018-04-11T13:57:03.021Z,7008
2018-04-11T13:58:17.702Z,6916
2018-04-11T13:59:02.810Z,6912
2018-04-11T14:00:03.104Z,6916
2018-04-11T14:01:03.114Z,6916
2018-04-11T14:02:03.144Z,6896
2018-04-11T14:03:02.912Z,6836
2018-04-11T14:04:02.680Z,6824
2018-04-11T14:05:03.223Z,6828
2018-04-11T14:06:03.241Z,6884
2018-04-11T14:07:17.929Z,6836
2018-04-11T14:08:03.296Z,6776
2018-04-11T14:09:17.714Z,6812
2018-04-11T14:10:03.344Z,6820
2018-04-11T14:11:02.845Z,6688
2018-04-11T14:12:03.393Z,6632
2018-04-11T14:13:18.086Z,6596
2018-04-11T14:14:03.443Z,6692
2018-04-11T14:15:03.203Z,6684
2018-04-11T14:16:03.250Z,6624
2018-04-11T14:18:03.027Z,6464
2018-04-11T14:19:03.569Z,6556
2018-04-11T14:20:03.327Z,6596
2018-04-11T14:21:03.095Z,6616
2018-04-11T14:22:03.643Z,6584